Cochrane, Alabama
Current Conditions -  °F | °C
As of 8:53 AM on Monday 24 Nov 2014 (Local Time) from KTCL Reporting Station
Broken Clouds Broken Clouds  
Wind Chill: 64°   Ceiling: 3500
Heat Index: 64°   Visibility: 10mi
Dew Point: 53°   Wind: 14mph
Humidity: 67%   Direction: 270°W
Pressure: 29.83"   Gusts: 20mph
Location:  33.1204°N, 88.1617°W
Report Text: KTCL 241453Z 27012G17KT 10SM FEW023 SCT030 BKN035 18/12 A2983 RMK AO2 SLP099 T01780117 53036
Loading
Personal Weather Stations






























Interactive Weather Map New forecast layout! Learn more

10-Day Weather Forecast

Advertisements
Track Severe Weather on mobile